Time;durP1;ratioP1;P1;durP2;ratioP2;P2;SDS_P1;SDS_P2;PMS_P1;PMS_P2;Temp;Humidity;BMP_temperature;BMP_pressure;BME280_temperature;BME280_humidity;BME280_pressure;Samples;Min_cycle;Max_cycle;Signal;HPM_P1;HPM_P2
2022/07/03 00:01:10;;;;;;;;;;;;;;;18.00;56.11;98258.25;5104911;27;20395;-63
2022/07/03 00:03:38;;;;;;;;;;;;;;;18.06;55.92;98268.66;5100938;27;19948;-63
2022/07/03 00:06:06;;;;;;;;;;;;;;;18.08;55.83;98265.56;5105227;27;20018;-63
2022/07/03 00:08:34;;;;;;;;;;;;;;;18.01;55.87;98260.66;5095554;27;19933;-57
2022/07/03 00:11:07;;;;;;;;;;;;;;;17.97;56.12;98265.25;5106182;27;19965;-62
2022/07/03 00:13:35;;;;;;;;;;;;;;;18.04;55.77;98262.69;5106628;27;20015;-56
2022/07/03 00:16:06;;;;;;;;;;;;;;;17.90;56.30;98259.59;5097462;28;20003;-62
2022/07/03 00:18:34;;;;;;;;;;;;;;;17.68;57.14;98263.63;5106476;28;19951;-62
2022/07/03 00:21:05;;;;;;;;;;;;;;;17.72;56.81;98264.56;5109793;27;19931;-63
2022/07/03 00:23:36;;;;;;;;;;;;;;;17.69;56.97;98264.44;5106936;27;20056;-63
2022/07/03 00:26:08;;;;;;;;;;;;;;;17.70;56.85;98258.59;5104127;27;19971;-63
2022/07/03 00:28:36;;;;;;;;;;;;;;;17.75;56.74;98263.09;5105159;28;19950;-62
2022/07/03 00:31:08;;;;;;;;;;;;;;;17.73;56.88;98263.41;5089507;28;19924;-62
2022/07/03 00:33:38;;;;;;;;;;;;;;;17.60;57.11;98261.03;5118462;27;20330;-63
2022/07/03 00:36:07;;;;;;;;;;;;;;;17.73;56.80;98265.34;5097706;28;19924;-62
2022/07/03 00:38:35;;;;;;;;;;;;;;;17.64;57.12;98262.75;5109222;27;19919;-63
2022/07/03 00:41:05;;;;;;;;;;;;;;;17.63;56.99;98255.66;5101785;28;20338;-63
2022/07/03 00:43:36;;;;;;;;;;;;;;;17.39;57.73;98255.72;5107860;28;19923;-63
2022/07/03 00:46:07;;;;;;;;;;;;;;;17.32;57.93;98261.81;5088655;28;20022;-63
2022/07/03 00:48:37;;;;;;;;;;;;;;;17.26;57.97;98258.50;5091138;28;19920;-63
2022/07/03 00:51:05;;;;;;;;;;;;;;;17.33;57.81;98257.13;5095383;28;19977;-63
2022/07/03 00:53:36;;;;;;;;;;;;;;;17.28;58.41;98247.97;5101910;27;19968;-60
2022/07/03 00:56:06;;;;;;;;;;;;;;;17.30;57.94;98247.63;5100916;27;20395;-62
2022/07/03 00:58:36;;;;;;;;;;;;;;;17.44;58.04;98255.47;5107040;27;19928;-65
2022/07/03 01:01:06;;;;;;;;;;;;;;;17.10;59.01;98252.13;5105060;27;19976;-63
2022/07/03 01:03:34;;;;;;;;;;;;;;;17.27;58.52;98251.06;5099038;28;19931;-63
2022/07/03 01:06:08;;;;;;;;;;;;;;;17.33;58.25;98246.13;5105545;27;20031;-62
2022/07/03 01:08:38;;;;;;;;;;;;;;;17.26;58.53;98254.97;5106513;27;19926;-63
2022/07/03 01:11:08;;;;;;;;;;;;;;;17.38;58.09;98249.44;5098493;28;20359;-63
2022/07/03 01:13:41;;;;;;;;;;;;;;;17.36;58.07;98243.47;5095800;28;19931;-63
2022/07/03 01:16:12;;;;;;;;;;;;;;;17.28;58.50;98245.22;5096197;28;20003;-60
2022/07/03 01:18:42;;;;;;;;;;;;;;;17.25;58.87;98245.91;5097120;28;20359;-63
2022/07/03 01:21:16;;;;;;;;;;;;;;;17.17;58.83;98244.09;5089597;27;19961;-61
2022/07/03 01:24:03;;;;;;;;;;;;;;;17.22;58.75;98243.88;5103373;27;20356;-63
2022/07/03 01:26:32;;;;;;;;;;;;;;;17.13;59.25;98239.66;5099824;27;19924;-63
2022/07/03 01:29:02;;;;;;;;;;;;;;;17.18;59.02;98245.69;5109653;27;19920;-63
2022/07/03 01:31:30;;;;;;;;;;;;;;;17.20;58.90;98231.63;5103868;27;20351;-63
2022/07/03 01:33:57;;;;;;;;;;;;;;;17.31;58.73;98237.44;5097790;27;19992;-62
2022/07/03 01:36:25;;;;;;;;;;;;;;;17.33;58.52;98233.19;5099330;27;20015;-62
2022/07/03 01:39:19;;;;;;;;;;;;;;;17.22;58.82;98232.09;5103642;27;20265;-58
2022/07/03 01:42:07;;;;;;;;;;;;;;;17.17;59.01;98237.81;5085953;28;19963;-62
2022/07/03 01:44:35;;;;;;;;;;;;;;;17.19;59.22;98225.31;5103866;28;19920;-62
2022/07/03 01:47:03;;;;;;;;;;;;;;;17.10;59.37;98238.41;5095365;28;20314;-62
2022/07/03 01:49:31;;;;;;;;;;;;;;;17.15;59.12;98232.69;5103230;28;20002;-61
2022/07/03 01:51:59;;;;;;;;;;;;;;;17.17;58.98;98226.84;5093155;28;19920;-62
2022/07/03 01:54:27;;;;;;;;;;;;;;;17.12;59.14;98235.31;5090484;28;19936;-62
2022/07/03 01:56:55;;;;;;;;;;;;;;;17.18;58.86;98231.97;5091377;27;20385;-62
2022/07/03 01:59:25;;;;;;;;;;;;;;;17.08;59.33;98223.41;5104857;27;19971;-61
2022/07/03 02:01:53;;;;;;;;;;;;;;;17.13;59.13;98229.47;5093072;28;20030;-52
2022/07/03 02:04:34;;;;;;;;;;;;;;;17.09;59.16;98228.56;5097858;27;19968;-62
2022/07/03 02:07:48;;;;;;;;;;;;;;;17.05;59.34;98230.41;5091959;27;20331;-56
2022/07/03 02:10:23;;;;;;;;;;;;;;;17.02;59.56;98228.34;5079132;27;20450;-57
2022/07/03 02:16:07;;;;;;;;;;;;;;;16.97;59.63;98223.88;5096472;28;19932;-62
2022/07/03 02:18:57;;;;;;;;;;;;;;;16.87;60.09;98220.81;5099263;28;20271;-61
2022/07/03 02:21:48;;;;;;;;;;;;;;;16.90;59.92;98225.63;5098649;28;20343;-62
2022/07/03 02:24:38;;;;;;;;;;;;;;;17.03;59.72;98227.19;5100122;28;20049;-62
2022/07/03 02:27:27;;;;;;;;;;;;;;;16.90;59.62;98222.88;5101687;28;19920;-61
2022/07/03 02:30:16;;;;;;;;;;;;;;;16.85;60.19;98225.88;5097095;28;19972;-61
2022/07/03 02:36:17;;;;;;;;;;;;;;;16.68;60.38;98221.38;5093752;28;20043;-62
2022/07/03 02:39:05;;;;;;;;;;;;;;;16.85;59.87;98218.44;5104057;28;19927;-57
2022/07/03 02:42:24;;;;;;;;;;;;;;;16.67;60.20;98215.09;5104242;28;19927;-63
2022/07/03 02:45:12;;;;;;;;;;;;;;;16.56;60.60;98219.44;5099473;28;19965;-61
2022/07/03 02:47:44;;;;;;;;;;;;;;;16.44;60.74;98217.50;5105107;28;19923;-62
2022/07/03 02:50:16;;;;;;;;;;;;;;;16.55;60.72;98217.84;5106096;28;20229;-59
2022/07/03 02:52:53;;;;;;;;;;;;;;;16.69;60.19;98221.03;5099822;28;19969;-61
2022/07/03 02:55:46;;;;;;;;;;;;;;;16.59;60.37;98215.22;5078793;28;19959;-62
2022/07/03 02:58:23;;;;;;;;;;;;;;;16.52;60.68;98215.78;5100732;28;20026;-59
2022/07/03 03:00:53;;;;;;;;;;;;;;;16.59;60.51;98216.00;5099096;28;20274;-62
2022/07/03 03:03:21;;;;;;;;;;;;;;;16.36;61.17;98225.84;5105745;28;20221;-62
2022/07/03 03:05:53;;;;;;;;;;;;;;;16.42;60.99;98222.53;5110930;27;19920;-61
2022/07/03 03:08:23;;;;;;;;;;;;;;;16.39;61.30;98219.66;5108360;27;19981;-62
2022/07/03 03:10:51;;;;;;;;;;;;;;;16.32;61.54;98228.47;5106732;28;19924;-62
2022/07/03 03:13:20;;;;;;;;;;;;;;;16.47;60.82;98219.56;5105113;28;19920;-61
2022/07/03 03:15:56;;;;;;;;;;;;;;;16.45;60.68;98226.50;5104196;28;19959;-52
2022/07/03 03:18:24;;;;;;;;;;;;;;;16.59;60.25;98224.25;5107359;27;19945;-62
2022/07/03 03:20:55;;;;;;;;;;;;;;;16.56;60.12;98222.16;5113153;27;20026;-53
2022/07/03 03:23:25;;;;;;;;;;;;;;;16.54;60.17;98224.47;5117438;27;20372;-59
2022/07/03 03:25:53;;;;;;;;;;;;;;;16.51;60.31;98230.63;5114692;27;19966;-60
2022/07/03 03:28:22;;;;;;;;;;;;;;;16.45;60.50;98226.50;5109554;27;19924;-62
2022/07/03 03:30:49;;;;;;;;;;;;;;;16.46;60.30;98222.66;5107581;27;20325;-62
2022/07/03 03:33:18;;;;;;;;;;;;;;;16.48;60.19;98220.34;5108593;28;20220;-57
2022/07/03 03:35:46;;;;;;;;;;;;;;;16.37;60.49;98219.22;5107447;27;19964;-61
2022/07/03 03:38:16;;;;;;;;;;;;;;;16.41;60.35;98222.88;5106261;27;19924;-62
2022/07/03 03:40:46;;;;;;;;;;;;;;;16.25;60.59;98225.50;5099346;27;19958;-62
2022/07/03 03:43:14;;;;;;;;;;;;;;;16.18;60.81;98219.75;5106403;27;19978;-62
2022/07/03 03:48:35;;;;;;;;;;;;;;;16.22;60.74;98229.69;5098024;28;20026;-60
2022/07/03 03:51:28;;;;;;;;;;;;;;;16.42;60.56;98227.22;5107420;27;19920;-61
2022/07/03 03:53:57;;;;;;;;;;;;;;;16.31;60.87;98226.06;5105748;28;19924;-62
2022/07/03 03:56:26;;;;;;;;;;;;;;;16.30;60.90;98225.25;5103673;27;20000;-60
2022/07/03 03:58:54;;;;;;;;;;;;;;;16.23;61.27;98228.53;5110298;27;19968;-62
2022/07/03 04:01:22;;;;;;;;;;;;;;;16.31;61.06;98220.59;5106262;28;19954;-60
2022/07/03 04:03:50;;;;;;;;;;;;;;;16.47;60.62;98216.03;5111256;27;19920;-62
2022/07/03 04:06:19;;;;;;;;;;;;;;;16.49;60.43;98219.22;5109368;27;19936;-57
2022/07/03 04:08:47;;;;;;;;;;;;;;;16.45;60.55;98229.25;5112373;27;19919;-62
2022/07/03 04:11:17;;;;;;;;;;;;;;;16.39;60.81;98236.91;5112401;27;20045;-59
2022/07/03 04:13:45;;;;;;;;;;;;;;;16.26;61.49;98240.78;5085290;28;19939;-62
2022/07/03 04:16:13;;;;;;;;;;;;;;;16.26;61.52;98242.72;5105816;28;19924;-60
2022/07/03 04:18:41;;;;;;;;;;;;;;;16.38;61.14;98250.97;5106258;28;19962;-62
2022/07/03 04:21:09;;;;;;;;;;;;;;;16.52;60.77;98251.44;5103999;27;19946;-62
2022/07/03 04:23:37;;;;;;;;;;;;;;;16.60;60.72;98236.81;5099314;27;20464;-62
2022/07/03 04:26:08;;;;;;;;;;;;;;;16.57;60.76;98232.03;5104593;27;19961;-62
2022/07/03 04:28:43;;;;;;;;;;;;;;;16.72;60.68;98233.28;5111517;27;20265;-62
2022/07/03 04:31:11;;;;;;;;;;;;;;;16.76;60.66;98236.94;5097537;28;20367;-62
2022/07/03 04:33:39;;;;;;;;;;;;;;;16.63;61.12;98230.66;5102535;27;19963;-62
2022/07/03 04:36:13;;;;;;;;;;;;;;;16.87;60.26;98231.78;5096353;28;19924;-62
2022/07/03 04:38:42;;;;;;;;;;;;;;;16.85;60.41;98232.16;5099724;28;19927;-62
2022/07/03 04:41:12;;;;;;;;;;;;;;;16.88;60.53;98236.13;5100218;28;19964;-61
2022/07/03 04:43:40;;;;;;;;;;;;;;;16.85;60.73;98231.34;5085089;28;19920;-57
2022/07/03 04:46:11;;;;;;;;;;;;;;;17.08;59.73;98231.66;5097961;28;19932;-62
2022/07/03 04:48:39;;;;;;;;;;;;;;;16.98;60.50;98232.91;5093598;28;19928;-62
2022/07/03 04:51:11;;;;;;;;;;;;;;;16.92;60.47;98232.34;5097818;27;19926;-62
2022/07/03 04:53:40;;;;;;;;;;;;;;;16.99;60.61;98231.78;5105349;28;19934;-62
2022/07/03 04:56:08;;;;;;;;;;;;;;;17.11;60.26;98236.47;5106057;28;19920;-61
2022/07/03 04:58:36;;;;;;;;;;;;;;;17.03;60.53;98238.19;5105754;28;20394;-62
2022/07/03 05:01:11;;;;;;;;;;;;;;;17.20;59.95;98239.84;5104617;28;20511;-62
2022/07/03 05:03:39;;;;;;;;;;;;;;;17.29;59.81;98238.56;5103178;28;19935;-62
2022/07/03 05:06:08;;;;;;;;;;;;;;;17.41;59.20;98235.00;5106356;27;19995;-61
2022/07/03 05:08:36;;;;;;;;;;;;;;;17.42;59.36;98239.34;5091738;27;20360;-62
2022/07/03 05:11:05;;;;;;;;;;;;;;;17.42;59.44;98238.56;5111803;27;19934;-62
2022/07/03 05:13:33;;;;;;;;;;;;;;;17.53;59.14;98245.97;5107062;27;20278;-62
2022/07/03 05:16:01;;;;;;;;;;;;;;;17.51;59.24;98247.44;5105341;27;20374;-62
2022/07/03 05:18:32;;;;;;;;;;;;;;;17.49;59.25;98252.50;5096563;27;19930;-62
2022/07/03 05:21:00;;;;;;;;;;;;;;;17.58;59.10;98250.41;5097562;28;19999;-62
2022/07/03 05:23:28;;;;;;;;;;;;;;;17.84;58.71;98249.16;5101722;27;19973;-62
2022/07/03 05:25:58;;;;;;;;;;;;;;;17.86;58.65;98255.94;5100551;28;20338;-62
2022/07/03 05:28:26;;;;;;;;;;;;;;;17.94;58.49;98248.66;5107272;27;19920;-62
2022/07/03 05:30:54;;;;;;;;;;;;;;;17.90;58.71;98258.78;5106397;27;19924;-60
2022/07/03 05:33:22;;;;;;;;;;;;;;;17.93;58.83;98261.59;5105292;27;19927;-62
2022/07/03 05:35:51;;;;;;;;;;;;;;;17.99;58.95;98256.66;5101153;28;19920;-62
2022/07/03 05:41:06;;;;;;;;;;;;;;;18.20;58.54;98259.97;5061995;28;19921;-62
2022/07/03 05:43:35;;;;;;;;;;;;;;;18.23;58.76;98259.28;5064823;28;20003;-56
2022/07/03 05:46:05;;;;;;;;;;;;;;;18.30;58.91;98251.19;5057134;28;19924;-62
2022/07/03 05:48:33;;;;;;;;;;;;;;;18.44;58.37;98245.28;5064164;28;19920;-62
2022/07/03 05:51:05;;;;;;;;;;;;;;;18.53;58.42;98254.13;5065511;28;20263;-62
2022/07/03 05:53:57;;;;;;;;;;;;;;;18.61;58.11;98252.38;5060553;28;20018;-62
2022/07/03 05:56:25;;;;;;;;;;;;;;;18.67;57.87;98248.19;5064385;28;19921;-62
2022/07/03 05:58:53;;;;;;;;;;;;;;;18.83;57.58;98257.25;5063248;28;19927;-61
2022/07/03 06:01:23;;;;;;;;;;;;;;;18.97;57.21;98259.56;5065219;28;19984;-63
2022/07/03 06:03:51;;;;;;;;;;;;;;;19.03;57.36;98255.38;5056012;28;19931;-63
2022/07/03 06:06:24;;;;;;;;;;;;;;;19.11;57.00;98267.34;5062328;28;19927;-54
2022/07/03 06:08:53;;;;;;;;;;;;;;;19.19;57.27;98258.09;5063937;28;19921;-56
2022/07/03 06:11:49;;;;;;;;;;;;;;;19.26;57.08;98262.94;5065545;28;19920;-61
2022/07/03 06:14:17;;;;;;;;;;;;;;;19.35;56.55;98261.59;5056152;28;19920;-63
2022/07/03 06:16:45;;;;;;;;;;;;;;;19.46;56.23;98263.78;5064150;28;19929;-58
2022/07/03 06:19:13;;;;;;;;;;;;;;;19.55;56.27;98261.63;5060447;28;19951;-67
2022/07/03 06:21:44;;;;;;;;;;;;;;;19.70;55.39;98259.97;5061719;28;19924;-59
2022/07/03 06:24:12;;;;;;;;;;;;;;;19.87;54.63;98257.56;5056448;28;20329;-64
2022/07/03 06:26:40;;;;;;;;;;;;;;;19.88;54.47;98261.94;5067361;28;19928;-65
2022/07/03 06:29:08;;;;;;;;;;;;;;;19.95;54.35;98260.47;5055414;28;19985;-64
2022/07/03 06:31:36;;;;;;;;;;;;;;;20.04;54.16;98263.78;5056037;28;19920;-64
2022/07/03 06:34:04;;;;;;;;;;;;;;;20.05;54.03;98263.44;5060714;28;19932;-64
2022/07/03 06:36:32;;;;;;;;;;;;;;;20.10;53.93;98263.13;5074771;28;20100;-63
2022/07/03 06:39:04;;;;;;;;;;;;;;;20.19;53.22;98251.03;5101884;28;19924;-65
2022/07/03 06:41:33;;;;;;;;;;;;;;;20.22;53.59;98264.91;5102619;28;19923;-65
2022/07/03 06:44:01;;;;;;;;;;;;;;;20.36;53.52;98258.88;5090905;28;19919;-60
2022/07/03 06:46:29;;;;;;;;;;;;;;;20.37;53.02;98255.72;5095764;28;20360;-62
2022/07/03 06:48:57;;;;;;;;;;;;;;;20.58;52.70;98260.06;5096783;28;20035;-66
2022/07/03 06:51:25;;;;;;;;;;;;;;;20.67;52.44;98263.38;5096502;28;20352;-62
2022/07/03 06:53:53;;;;;;;;;;;;;;;20.70;52.46;98250.78;5092867;28;19942;-62
2022/07/03 06:56:27;;;;;;;;;;;;;;;20.70;52.67;98257.09;5097758;28;20311;-65
2022/07/03 06:58:58;;;;;;;;;;;;;;;20.73;51.62;98256.38;5098305;28;19919;-61
2022/07/03 07:01:26;;;;;;;;;;;;;;;20.78;52.23;98252.50;5096070;28;20006;-65
2022/07/03 07:03:54;;;;;;;;;;;;;;;20.86;51.50;98254.97;5103250;28;20025;-65
2022/07/03 07:06:23;;;;;;;;;;;;;;;20.82;51.08;98248.59;5103688;28;19924;-53
2022/07/03 07:08:51;;;;;;;;;;;;;;;20.88;51.14;98260.94;5105729;28;20390;-65
2022/07/03 07:11:19;;;;;;;;;;;;;;;20.95;50.83;98251.19;5095946;28;20327;-66
2022/07/03 07:13:49;;;;;;;;;;;;;;;21.06;51.10;98250.16;5082001;28;20023;-62
2022/07/03 07:16:20;;;;;;;;;;;;;;;21.04;49.62;98254.44;5098583;28;19923;-65
2022/07/03 07:18:49;;;;;;;;;;;;;;;21.12;49.62;98258.91;5103030;28;20365;-64
2022/07/03 07:21:17;;;;;;;;;;;;;;;21.23;49.97;98256.31;5102506;28;19938;-64
2022/07/03 07:23:45;;;;;;;;;;;;;;;21.37;49.65;98251.81;5099895;28;19971;-65
2022/07/03 07:26:13;;;;;;;;;;;;;;;21.32;49.69;98252.13;5100340;28;19988;-64
2022/07/03 07:28:41;;;;;;;;;;;;;;;21.50;49.50;98255.13;5100622;28;19947;-65
2022/07/03 07:31:10;;;;;;;;;;;;;;;21.55;49.92;98257.56;5083028;28;19923;-64
2022/07/03 07:33:38;;;;;;;;;;;;;;;21.65;50.02;98259.66;5111462;28;20910;-63
2022/07/03 07:36:07;;;;;;;;;;;;;;;21.65;49.04;98253.34;5103005;28;20019;-66
2022/07/03 07:38:35;;;;;;;;;;;;;;;21.79;49.26;98256.28;5107418;28;19927;-62
2022/07/03 07:41:05;;;;;;;;;;;;;;;21.70;49.38;98250.25;5099854;28;20373;-60
2022/07/03 07:43:33;;;;;;;;;;;;;;;21.75;49.82;98255.44;5093943;28;19927;-62
2022/07/03 07:46:07;;;;;;;;;;;;;;;21.89;48.61;98260.34;5098159;28;19920;-60
2022/07/03 07:48:37;;;;;;;;;;;;;;;21.88;49.02;98245.72;5097423;28;19974;-61
2022/07/03 07:51:13;;;;;;;;;;;;;;;21.81;48.29;98253.16;5106225;27;20018;-62
2022/07/03 07:53:41;;;;;;;;;;;;;;;21.96;49.21;98247.41;5085873;28;19919;-61
2022/07/03 07:56:38;;;;;;;;;;;;;;;21.99;48.29;98248.59;5104565;28;19924;-61
2022/07/03 07:59:06;;;;;;;;;;;;;;;22.09;47.70;98247.13;5104686;28;20015;-62
2022/07/03 08:07:07;;;;;;;;;;;;;;;22.41;47.33;98236.41;5106183;28;19931;-60
2022/07/03 08:09:35;;;;;;;;;;;;;;;22.57;46.44;98244.44;5101898;28;20339;-63
2022/07/03 08:12:03;;;;;;;;;;;;;;;22.48;45.59;98237.28;5104884;28;20014;-59
2022/07/03 08:14:31;;;;;;;;;;;;;;;22.61;45.72;98243.31;5100416;28;19964;-60
2022/07/03 08:17:02;;;;;;;;;;;;;;;22.71;45.40;98233.50;5107156;28;20014;-60
2022/07/03 08:19:31;;;;;;;;;;;;;;;22.82;45.83;98244.66;5094476;28;20197;-60
2022/07/03 08:22:01;;;;;;;;;;;;;;;22.84;45.84;98243.06;5105444;28;19920;-60
2022/07/03 08:24:28;;;;;;;;;;;;;;;23.03;45.95;98236.53;5101645;28;19923;-57
2022/07/03 08:26:57;;;;;;;;;;;;;;;23.10;45.33;98244.06;5103760;28;19996;-60
2022/07/03 08:29:25;;;;;;;;;;;;;;;23.22;45.06;98230.72;5095781;28;19920;-60
2022/07/03 08:31:53;;;;;;;;;;;;;;;23.23;44.37;98237.03;5103621;28;20344;-57
2022/07/03 08:34:21;;;;;;;;;;;;;;;23.21;45.67;98239.38;5091582;28;20335;-60
2022/07/03 08:36:51;;;;;;;;;;;;;;;23.26;45.17;98242.59;5105573;28;19920;-60
2022/07/03 08:39:19;;;;;;;;;;;;;;;23.30;43.28;98242.63;5103280;28;20266;-59
2022/07/03 08:41:48;;;;;;;;;;;;;;;23.34;43.88;98232.34;5105705;28;19953;-59
2022/07/03 08:44:16;;;;;;;;;;;;;;;23.37;44.85;98228.78;5098074;28;20379;-59
2022/07/03 08:46:44;;;;;;;;;;;;;;;23.41;45.11;98228.81;5102871;28;19936;-60
2022/07/03 08:49:12;;;;;;;;;;;;;;;23.44;44.65;98236.38;5101662;28;20259;-60
2022/07/03 08:51:40;;;;;;;;;;;;;;;23.45;44.24;98238.75;5103429;28;19931;-57
2022/07/03 08:54:10;;;;;;;;;;;;;;;23.49;44.48;98234.00;5102772;28;19951;-58
2022/07/03 08:56:38;;;;;;;;;;;;;;;23.56;43.87;98229.69;5098328;28;20336;-59
2022/07/03 08:59:07;;;;;;;;;;;;;;;23.57;42.53;98236.81;5100189;28;20266;-57
2022/07/03 09:01:41;;;;;;;;;;;;;;;23.59;41.85;98231.66;5099244;28;20330;-59
2022/07/03 09:04:36;;;;;;;;;;;;;;;23.68;43.77;98218.25;5103972;28;19931;-58
2022/07/03 09:07:06;;;;;;;;;;;;;;;23.73;44.68;98226.19;5099682;28;19931;-59
2022/07/03 09:09:36;;;;;;;;;;;;;;;23.89;42.53;98217.53;5101114;28;20022;-57
2022/07/03 09:12:04;;;;;;;;;;;;;;;24.08;41.46;98222.75;5106108;28;20005;-60
2022/07/03 09:17:24;;;;;;;;;;;;;;;24.07;40.51;98215.59;5104202;28;20016;-59
2022/07/03 09:19:52;;;;;;;;;;;;;;;24.11;42.47;98219.16;5096847;28;19983;-59
2022/07/03 09:22:22;;;;;;;;;;;;;;;24.03;42.85;98218.38;5099927;28;20255;-60
2022/07/03 09:24:52;;;;;;;;;;;;;;;24.20;42.51;98216.03;5099569;28;20003;-60
2022/07/03 09:27:21;;;;;;;;;;;;;;;24.10;41.59;98209.25;5102045;28;19919;-59
2022/07/03 09:30:00;;;;;;;;;;;;;;;24.05;41.72;98218.75;5102327;28;20404;-60
2022/07/03 09:32:31;;;;;;;;;;;;;;;24.39;41.18;98207.31;5099729;28;19985;-60
2022/07/03 09:35:17;;;;;;;;;;;;;;;24.36;41.39;98213.69;5102565;28;20274;-60
2022/07/03 09:37:49;;;;;;;;;;;;;;;24.48;39.61;98206.94;5100016;28;19934;-59
2022/07/03 09:40:19;;;;;;;;;;;;;;;24.61;39.25;98199.00;5098148;28;19977;-61
2022/07/03 09:43:05;;;;;;;;;;;;;;;24.51;41.21;98198.63;5100821;28;19920;-60
2022/07/03 09:48:44;;;;;;;;;;;;;;;24.38;42.55;98194.63;5099746;28;19920;-59
2022/07/03 09:51:19;;;;;;;;;;;;;;;24.65;37.88;98186.69;5098168;28;20256;-60
2022/07/03 09:53:48;;;;;;;;;;;;;;;24.64;40.20;98196.22;5101587;27;20395;-60
2022/07/03 09:56:28;;;;;;;;;;;;;;;24.68;38.91;98193.44;5098069;27;20042;-60
2022/07/03 09:59:03;;;;;;;;;;;;;;;24.67;36.08;98189.09;5101547;27;20015;-59
2022/07/03 10:01:31;;;;;;;;;;;;;;;24.72;38.24;98194.25;5100164;28;19943;-57
2022/07/03 10:04:10;;;;;;;;;;;;;;;24.64;40.46;98193.44;5101993;28;19996;-57
2022/07/03 10:06:48;;;;;;;;;;;;;;;24.70;35.10;98189.06;5099250;28;19919;-58
2022/07/03 10:09:16;;;;;;;;;;;;;;;24.75;39.35;98193.44;5102458;28;20382;-59
2022/07/03 10:11:45;;;;;;;;;;;;;;;24.59;37.21;98182.72;5101075;28;20347;-58
2022/07/03 10:14:14;;;;;;;;;;;;;;;24.77;35.88;98182.72;5097885;28;19944;-60
2022/07/03 10:16:42;;;;;;;;;;;;;;;24.79;39.93;98185.91;5080265;28;20340;-60
2022/07/03 10:19:38;;;;;;;;;;;;;;;24.70;36.75;98189.06;5099877;28;19939;-59
2022/07/03 10:22:07;;;;;;;;;;;;;;;24.90;36.23;98192.22;5102525;28;19960;-59
2022/07/03 10:24:36;;;;;;;;;;;;;;;25.01;37.79;98181.88;5104358;27;20355;-59
2022/07/03 10:27:05;;;;;;;;;;;;;;;24.88;37.70;98177.16;5097587;28;19956;-60
2022/07/03 10:29:34;;;;;;;;;;;;;;;24.87;38.76;98184.69;5105920;27;19965;-60
2022/07/03 10:32:01;;;;;;;;;;;;;;;25.23;34.71;98176.28;5099398;27;20427;-60
2022/07/03 10:34:30;;;;;;;;;;;;;;;25.18;38.35;98171.94;5083034;28;20283;-61
2022/07/03 10:36:58;;;;;;;;;;;;;;;25.22;36.54;98178.28;5080833;28;19920;-59
2022/07/03 10:39:44;;;;;;;;;;;;;;;25.15;39.09;98172.75;5081419;28;19920;-58
2022/07/03 10:45:06;;;;;;;;;;;;;;;25.27;37.44;98165.94;5041928;28;20015;-61
2022/07/03 10:47:38;;;;;;;;;;;;;;;25.04;39.64;98175.53;5083852;28;20363;-55
2022/07/03 10:50:14;;;;;;;;;;;;;;;25.06;38.65;98173.16;5077502;28;20379;-56
2022/07/03 10:52:42;;;;;;;;;;;;;;;24.94;38.20;98179.13;5080719;28;19920;-59
2022/07/03 10:55:11;;;;;;;;;;;;;;;25.18;35.53;98158.03;5081104;28;19920;-53
2022/07/03 10:57:41;;;;;;;;;;;;;;;25.06;38.42;98173.16;5083155;28;20319;-61
2022/07/03 11:00:19;;;;;;;;;;;;;;;25.12;32.57;98162.41;5080451;28;19932;-61
2022/07/03 11:02:47;;;;;;;;;;;;;;;25.10;37.62;98164.81;5081335;28;19947;-58
2022/07/03 11:05:19;;;;;;;;;;;;;;;25.10;38.79;98164.03;5079744;28;19926;-60
2022/07/03 11:08:07;;;;;;;;;;;;;;;25.28;35.37;98154.41;5081164;28;20039;-61
2022/07/03 11:14:10;;;;;;;;;;;;;;;25.46;32.28;98148.78;5083906;28;19963;-59
2022/07/03 11:16:40;;;;;;;;;;;;;;;25.54;30.84;98152.31;5081516;28;19927;-63
2022/07/03 11:19:08;;;;;;;;;;;;;;;25.67;31.83;98153.44;5079724;28;20280;-61
2022/07/03 11:21:37;;;;;;;;;;;;;;;25.81;30.03;98147.03;5051356;28;21045;-63
2022/07/03 11:24:15;;;;;;;;;;;;;;;25.92;30.25;98149.75;5077732;28;20003;-60
2022/07/03 11:26:44;;;;;;;;;;;;;;;25.80;30.28;98145.47;5081756;28;19978;-60
2022/07/03 11:29:26;;;;;;;;;;;;;;;25.73;31.28;98151.84;5079350;28;19924;-60
2022/07/03 11:31:55;;;;;;;;;;;;;;;25.91;29.11;98142.59;5083512;28;20318;-61
2022/07/03 11:34:23;;;;;;;;;;;;;;;25.87;33.33;98142.63;5077621;28;20019;-53
2022/07/03 11:36:52;;;;;;;;;;;;;;;25.79;31.75;98141.09;5082370;28;19919;-59
2022/07/03 11:39:21;;;;;;;;;;;;;;;25.81;29.99;98133.91;5104046;28;19919;-62
2022/07/03 11:41:49;;;;;;;;;;;;;;;26.05;31.01;98134.16;5082085;28;19919;-62
2022/07/03 11:44:21;;;;;;;;;;;;;;;26.17;29.37;98130.09;5098892;28;19955;-62
2022/07/03 11:46:51;;;;;;;;;;;;;;;26.10;29.70;98123.38;5081354;28;20019;-61
2022/07/03 11:49:22;;;;;;;;;;;;;;;26.08;30.59;98125.75;5103189;28;19993;-58
2022/07/03 11:51:57;;;;;;;;;;;;;;;26.53;28.66;98127.81;5087592;28;19926;-61
2022/07/03 11:54:26;;;;;;;;;;;;;;;26.84;28.47;98120.31;5076479;28;20044;-54
2022/07/03 11:56:54;;;;;;;;;;;;;;;26.51;30.27;98130.22;5097369;28;20271;-59
2022/07/03 11:59:23;;;;;;;;;;;;;;;26.23;32.56;98111.72;5101314;28;19946;-50
2022/07/03 12:01:54;;;;;;;;;;;;;;;26.59;28.72;98115.81;5101965;28;20605;-57
2022/07/03 12:04:24;;;;;;;;;;;;;;;26.39;31.01;98117.56;5101589;28;19936;-50
2022/07/03 12:06:53;;;;;;;;;;;;;;;26.39;30.65;98114.78;5104960;27;20543;-59
2022/07/03 12:09:22;;;;;;;;;;;;;;;26.70;30.05;98112.13;5099159;28;22410;-52
2022/07/03 12:11:54;;;;;;;;;;;;;;;26.69;30.48;98116.91;5102136;28;20000;-61
2022/07/03 12:14:38;;;;;;;;;;;;;;;26.78;28.44;98105.25;5101411;28;19943;-61
2022/07/03 12:17:32;;;;;;;;;;;;;;;26.67;29.66;98116.50;5095220;28;19932;-62
2022/07/03 12:20:02;;;;;;;;;;;;;;;26.68;30.78;98117.31;5084450;27;19930;-60
2022/07/03 12:22:56;;;;;;;;;;;;;;;26.68;29.15;98115.31;5081585;28;20504;-53
2022/07/03 12:25:24;;;;;;;;;;;;;;;26.50;30.17;98106.34;5100128;28;19970;-58
2022/07/03 12:27:52;;;;;;;;;;;;;;;26.33;31.67;98108.84;5103503;28;19938;-62
2022/07/03 12:30:21;;;;;;;;;;;;;;;26.35;28.86;98100.06;5099215;28;19932;-60
2022/07/03 12:32:54;;;;;;;;;;;;;;;26.38;31.28;98107.63;5077413;28;20622;-60
2022/07/03 12:36:00;;;;;;;;;;;;;;;26.90;26.80;98091.59;5100387;27;20039;-65
2022/07/03 12:41:45;;;;;;;;;;;;;;;26.90;28.02;98090.81;5082999;28;20376;-60
2022/07/03 12:44:17;;;;;;;;;;;;;;;26.89;28.60;98089.19;5078461;28;20353;-60
2022/07/03 12:46:45;;;;;;;;;;;;;;;26.73;29.97;98098.13;5075262;28;19942;-60
2022/07/03 12:49:16;;;;;;;;;;;;;;;26.58;27.64;98085.56;5089750;28;19924;-59
2022/07/03 12:52:01;;;;;;;;;;;;;;;26.89;30.09;98086.41;5077386;28;20357;-60
2022/07/03 13:00:04;;;;;;;;;;;;;;;26.48;29.46;98078.91;5080930;28;20379;-59
2022/07/03 13:02:57;;;;;;;;;;;;;;;26.69;28.96;98079.91;5076983;28;20291;-54
2022/07/03 13:05:25;;;;;;;;;;;;;;;26.84;29.50;98075.72;5083575;28;19927;-61
2022/07/03 13:07:58;;;;;;;;;;;;;;;27.00;28.91;98073.13;5073950;28;19927;-60
2022/07/03 13:10:51;;;;;;;;;;;;;;;27.06;29.99;98071.50;5073040;28;19921;-52
2022/07/03 13:13:20;;;;;;;;;;;;;;;26.98;29.17;98061.63;5078056;28;19954;-59
2022/07/03 13:15:48;;;;;;;;;;;;;;;27.10;29.19;98060.31;5083151;28;20118;-51
2022/07/03 13:18:19;;;;;;;;;;;;;;;26.97;30.19;98068.41;5081900;28;19951;-55
2022/07/03 13:20:47;;;;;;;;;;;;;;;26.91;30.03;98067.28;5079295;28;20287;-56
2022/07/03 13:23:19;;;;;;;;;;;;;;;26.71;30.29;98060.75;5051409;28;19989;-57
2022/07/03 13:25:48;;;;;;;;;;;;;;;26.84;28.72;98053.41;5077470;28;19920;-59
2022/07/03 13:28:16;;;;;;;;;;;;;;;26.78;30.41;98060.66;5097546;27;20091;-59
2022/07/03 13:30:44;;;;;;;;;;;;;;;26.89;30.33;98058.53;5076376;28;20368;-60
2022/07/03 13:33:12;;;;;;;;;;;;;;;26.73;31.09;98061.91;5074162;28;20131;-59
2022/07/03 13:35:41;;;;;;;;;;;;;;;26.75;32.01;98067.88;5070258;28;20001;-58
2022/07/03 13:38:09;;;;;;;;;;;;;;;26.79;31.88;98056.66;5097677;27;19919;-61
2022/07/03 13:40:39;;;;;;;;;;;;;;;27.07;31.04;98067.53;5099236;28;19919;-54
2022/07/03 13:43:08;;;;;;;;;;;;;;;27.37;29.68;98058.34;5100136;28;19924;-60
2022/07/03 13:45:36;;;;;;;;;;;;;;;27.33;30.09;98062.41;5096074;28;19920;-60
2022/07/03 13:48:06;;;;;;;;;;;;;;;27.33;31.17;98057.63;5098892;28;20365;-60
2022/07/03 13:50:34;;;;;;;;;;;;;;;27.19;31.69;98059.81;5098614;28;20375;-59